createdAt,value
2023-01-26T00:00:01.629Z,102584.75
2023-01-26T00:02:03.178Z,102594.97
2023-01-26T00:04:04.803Z,102587.94
2023-01-26T00:06:08.063Z,102592.38
2023-01-26T00:08:10.061Z,102590.81
2023-01-26T00:10:12.665Z,102583.94
2023-01-26T00:12:14.330Z,102589.13
2023-01-26T00:14:15.787Z,102590.75
2023-01-26T00:16:17.333Z,102580.38
2023-01-26T00:18:18.872Z,102580.31
2023-01-26T00:20:20.350Z,102574.25
2023-01-26T00:22:22.566Z,102569.28
2023-01-26T00:24:24.127Z,102571.22
2023-01-26T00:26:26.953Z,102572.84
2023-01-26T00:28:29.096Z,102563.28
2023-01-26T00:30:30.578Z,102561.59
2023-01-26T00:32:32.020Z,102557.06
2023-01-26T00:34:33.467Z,102563.06
2023-01-26T00:36:37.640Z,102556.13
2023-01-26T00:38:39.980Z,102554.19
2023-01-26T00:40:41.446Z,102557.59
2023-01-26T00:42:42.883Z,102558.56
2023-01-26T00:44:44.782Z,102551.09
2023-01-26T00:46:46.316Z,102549.53
2023-01-26T00:48:47.750Z,102544.34
2023-01-26T00:50:51.117Z,102550.56
2023-01-26T00:52:53.865Z,102538.50
2023-01-26T00:54:55.341Z,102544.56
2023-01-26T00:56:56.953Z,102539.38
2023-01-26T00:58:58.403Z,102545.47
2023-01-26T01:00:59.908Z,102543.53
2023-01-26T01:03:01.980Z,102548.56
2023-01-26T01:05:03.800Z,102543.25
2023-01-26T01:07:05.665Z,102547.69
2023-01-26T01:09:07.255Z,102541.97
2023-01-26T01:11:11.225Z,102544.78
2023-01-26T01:13:12.676Z,102543.97
2023-01-26T01:15:14.429Z,102537.09
2023-01-26T01:17:15.895Z,102541.31
2023-01-26T01:19:18.473Z,102528.28
2023-01-26T01:21:20.295Z,102525.63
2023-01-26T01:23:21.940Z,102526.50
2023-01-26T01:25:23.372Z,102530.06
2023-01-26T01:27:25.201Z,102526.66
2023-01-26T01:29:26.717Z,102522.44
2023-01-26T01:31:29.410Z,102524.94
2023-01-26T01:33:30.992Z,102518.00
2023-01-26T01:35:34.479Z,102517.19
2023-01-26T01:37:36.874Z,102513.78
2023-01-26T01:39:38.374Z,102518.97
2023-01-26T01:41:39.880Z,102521.53
2023-01-26T01:43:41.875Z,102525.16
2023-01-26T01:45:47.805Z,102524.50
2023-01-26T01:47:49.333Z,102521.00
2023-01-26T01:49:52.948Z,102515.75
2023-01-26T01:51:59.849Z,102508.75
2023-01-26T01:54:07.829Z,102507.78
2023-01-26T01:56:15.665Z,102505.03
2023-01-26T01:58:17.247Z,102505.03
2023-01-26T02:00:21.651Z,102507.63
2023-01-26T02:02:23.200Z,102506.69
2023-01-26T02:04:25.395Z,102509.34
2023-01-26T02:06:33.254Z,102506.97
2023-01-26T02:08:39.005Z,102507.91
2023-01-26T02:10:42.225Z,102502.97
2023-01-26T02:12:44.405Z,102496.88
2023-01-26T02:14:46.483Z,102497.84
2023-01-26T02:16:47.932Z,102496.22
2023-01-26T02:18:49.623Z,102494.50
2023-01-26T02:20:55.241Z,102490.31
2023-01-26T02:23:20.768Z,102493.78
2023-01-26T02:25:37.147Z,102491.19
2023-01-26T02:27:38.991Z,102493.88
2023-01-26T02:29:41.901Z,102486.75
2023-01-26T02:31:43.798Z,102485.91
2023-01-26T02:33:45.604Z,102471.28
2023-01-26T02:35:47.105Z,102471.19
2023-01-26T02:37:48.572Z,102476.31
2023-01-26T02:40:15.545Z,102483.31
2023-01-26T02:42:35.692Z,102483.19
2023-01-26T02:44:38.465Z,102478.81
2023-01-26T02:46:40.034Z,102471.88
2023-01-26T02:49:00.306Z,102477.94
2023-01-26T02:51:01.791Z,102480.84
2023-01-26T02:53:04.010Z,102477.38
2023-01-26T02:55:25.181Z,102478.25
2023-01-26T02:57:27.198Z,102483.56
2023-01-26T02:59:28.843Z,102475.13
2023-01-26T03:01:32.488Z,102472.66
2023-01-26T03:03:42.796Z,102476.16
2023-01-26T03:05:44.689Z,102476.22
2023-01-26T03:07:46.180Z,102470.28
2023-01-26T03:09:47.683Z,102475.53
2023-01-26T03:11:49.307Z,102470.28
2023-01-26T03:13:50.775Z,102471.16
2023-01-26T03:15:55.125Z,102466.88
2023-01-26T03:18:33.618Z,102467.91
2023-01-26T03:20:53.759Z,102468.84
2023-01-26T03:23:14.588Z,102459.31
2023-01-26T03:25:34.373Z,102468.66
2023-01-26T03:27:42.636Z,102451.47
2023-01-26T03:29:44.748Z,102455.69
2023-01-26T03:31:46.283Z,102461.69
2023-01-26T03:33:47.738Z,102453.97
2023-01-26T03:35:52.193Z,102454.13
2023-01-26T03:37:54.873Z,102452.41
2023-01-26T03:40:14.952Z,102459.38
2023-01-26T03:42:35.289Z,102456.84
2023-01-26T03:44:55.096Z,102453.56
2023-01-26T03:47:14.958Z,102453.56
2023-01-26T03:49:34.813Z,102446.63
2023-01-26T03:51:55.167Z,102439.72
2023-01-26T03:54:14.774Z,102444.16
2023-01-26T03:56:20.011Z,102451.94
2023-01-26T03:58:21.453Z,102458.00
2023-01-26T04:00:22.953Z,102454.59
2023-01-26T04:02:42.970Z,102450.22
2023-01-26T04:05:02.741Z,102446.75
2023-01-26T04:07:22.567Z,102450.22
2023-01-26T04:09:24.108Z,102446.75
2023-01-26T04:11:25.552Z,102451.94
2023-01-26T04:13:45.649Z,102452.00
2023-01-26T04:16:08.492Z,102447.03
2023-01-26T04:18:28.490Z,102444.50
2023-01-26T04:20:48.320Z,102440.88
2023-01-26T04:22:49.799Z,102427.84
2023-01-26T04:24:51.360Z,102431.34
2023-01-26T04:26:52.851Z,102433.94
2023-01-26T04:28:54.332Z,102426.16
2023-01-26T04:30:55.772Z,102424.44
2023-01-26T04:32:57.226Z,102422.75
2023-01-26T04:34:58.752Z,102429.69
2023-01-26T04:37:00.179Z,102430.66
2023-01-26T04:39:01.947Z,102421.09
2023-01-26T04:41:03.554Z,102423.81
2023-01-26T04:43:05.053Z,102425.66
2023-01-26T04:45:06.990Z,102431.72
2023-01-26T04:47:08.481Z,102428.34
2023-01-26T04:49:10.319Z,102427.53
2023-01-26T04:51:14.443Z,102423.31
2023-01-26T04:53:15.905Z,102417.28
2023-01-26T04:55:17.366Z,102417.28
2023-01-26T04:57:23.237Z,102418.19
2023-01-26T04:59:24.774Z,102418.25
2023-01-26T05:01:26.519Z,102420.16
2023-01-26T05:03:28.097Z,102412.56
2023-01-26T05:05:29.551Z,102413.59
2023-01-26T05:07:31.063Z,102412.81
2023-01-26T05:09:32.637Z,102414.41
2023-01-26T05:11:34.123Z,102415.97
2023-01-26T05:13:36.036Z,102411.56
2023-01-26T05:15:37.987Z,102410.66
2023-01-26T05:17:39.434Z,102405.47
2023-01-26T05:19:40.981Z,102413.31
2023-01-26T05:21:42.429Z,102407.31
2023-01-26T05:23:43.898Z,102411.00
2023-01-26T05:25:45.360Z,102407.63
2023-01-26T05:27:47.318Z,102407.63
2023-01-26T05:29:49.829Z,102409.41
2023-01-26T05:31:51.360Z,102408.59
2023-01-26T05:33:52.889Z,102407.84
2023-01-26T05:35:54.579Z,102406.94
2023-01-26T05:37:56.361Z,102403.59
2023-01-26T05:39:57.863Z,102401.88
2023-01-26T05:41:59.368Z,102414.09
2023-01-26T05:44:00.836Z,102414.91
2023-01-26T05:46:02.899Z,102411.50
2023-01-26T05:48:04.548Z,102413.22
2023-01-26T05:50:06.954Z,102413.22
2023-01-26T05:52:26.384Z,102417.56
2023-01-26T05:54:27.897Z,102420.22
2023-01-26T05:56:29.354Z,102417.78
2023-01-26T05:58:30.810Z,102418.78
2023-01-26T06:00:32.325Z,102419.78
2023-01-26T06:02:33.881Z,102416.25
2023-01-26T06:04:35.424Z,102416.25
2023-01-26T06:06:36.890Z,102419.72
2023-01-26T06:08:38.325Z,102412.84
2023-01-26T06:10:41.219Z,102415.44
2023-01-26T06:12:43.108Z,102418.91
2023-01-26T06:14:47.220Z,102419.00
2023-01-26T06:16:49.121Z,102424.09
2023-01-26T06:18:50.587Z,102427.56
2023-01-26T06:20:52.054Z,102423.22
2023-01-26T06:22:53.549Z,102418.03
2023-01-26T06:24:55.119Z,102417.13
2023-01-26T06:26:56.593Z,102423.22
2023-01-26T06:28:58.083Z,102417.31
2023-01-26T06:31:01.159Z,102425.16
2023-01-26T06:33:02.781Z,102421.66
2023-01-26T06:35:07.130Z,102419.00
2023-01-26T06:37:08.939Z,102425.09
2023-01-26T06:39:12.245Z,102419.00
2023-01-26T06:41:14.482Z,102417.34
2023-01-26T06:43:15.970Z,102419.97
2023-01-26T06:45:18.182Z,102426.91
2023-01-26T06:47:19.706Z,102429.50
2023-01-26T06:49:21.151Z,102432.09
2023-01-26T06:51:44.266Z,102428.81
2023-01-26T06:53:53.326Z,102433.13
2023-01-26T06:55:54.839Z,102434.00
2023-01-26T06:57:56.309Z,102432.28
2023-01-26T06:59:57.983Z,102434.94
2023-01-26T07:01:59.499Z,102430.78
2023-01-26T07:04:00.953Z,102425.78
2023-01-26T07:06:02.482Z,102439.69
2023-01-26T07:08:06.403Z,102436.28
2023-01-26T07:10:08.804Z,102439.69
2023-01-26T07:12:10.523Z,102444.06
2023-01-26T07:14:11.982Z,102450.06
2023-01-26T07:16:15.347Z,102448.44
2023-01-26T07:18:16.925Z,102445.84
2023-01-26T07:20:18.526Z,102442.34
2023-01-26T07:22:19.995Z,102445.00
2023-01-26T07:24:21.944Z,102446.91
2023-01-26T07:26:23.696Z,102446.91
2023-01-26T07:28:25.959Z,102446.97
2023-01-26T07:30:27.452Z,102456.47
2023-01-26T07:32:28.921Z,102464.19
2023-01-26T07:34:30.385Z,102463.25
2023-01-26T07:36:31.979Z,102468.38
2023-01-26T07:38:34.444Z,102464.25
2023-01-26T07:40:35.914Z,102466.91
2023-01-26T07:42:37.449Z,102467.03
2023-01-26T07:44:38.932Z,102458.50
2023-01-26T07:46:41.425Z,102458.56
2023-01-26T07:48:43.415Z,102457.66
2023-01-26T07:50:47.258Z,102464.50
2023-01-26T07:52:49.130Z,102461.22
2023-01-26T07:54:51.500Z,102468.31
2023-01-26T07:56:54.564Z,102465.81
2023-01-26T07:58:56.051Z,102468.47
2023-01-26T08:01:06.900Z,102458.75
2023-01-26T08:03:08.450Z,102455.13
2023-01-26T08:05:10.228Z,102455.19
2023-01-26T08:07:11.684Z,102456.19
2023-01-26T08:09:13.411Z,102458.00
2023-01-26T08:11:14.864Z,102463.19
2023-01-26T08:13:23.548Z,102461.34
2023-01-26T08:15:28.640Z,102463.88
2023-01-26T08:17:30.661Z,102465.81
2023-01-26T08:19:32.182Z,102461.50
2023-01-26T08:21:33.661Z,102462.31
2023-01-26T08:23:35.449Z,102462.31
2023-01-26T08:25:36.960Z,102459.84
2023-01-26T08:27:38.403Z,102456.34
2023-01-26T08:29:40.006Z,102453.75
2023-01-26T08:31:41.500Z,102462.44
2023-01-26T08:33:43.540Z,102459.97
2023-01-26T08:35:45.047Z,102473.06
2023-01-26T08:37:46.547Z,102471.50
2023-01-26T08:39:48.001Z,102472.31
2023-01-26T08:41:49.479Z,102475.91
2023-01-26T08:43:51.260Z,102475.91
2023-01-26T08:45:52.770Z,102475.91
2023-01-26T08:47:54.267Z,102473.38
2023-01-26T08:49:55.796Z,102482.06
2023-01-26T08:51:57.273Z,102472.50
2023-01-26T08:53:58.708Z,102475.97
2023-01-26T08:56:04.995Z,102479.63
2023-01-26T08:58:06.440Z,102485.78
2023-01-26T09:00:08.780Z,102482.25
2023-01-26T09:02:11.164Z,102478.94
2023-01-26T09:04:12.644Z,102479.00
2023-01-26T09:06:15.785Z,102484.97
2023-01-26T09:08:17.320Z,102485.78
2023-01-26T09:10:18.944Z,102471.84
2023-01-26T09:12:20.435Z,102482.34
2023-01-26T09:14:22.596Z,102483.44
2023-01-26T09:16:24.965Z,102481.72
2023-01-26T09:18:26.508Z,102481.72
2023-01-26T09:20:28.800Z,102489.63
2023-01-26T09:22:30.765Z,102489.69
2023-01-26T09:24:32.310Z,102483.59
2023-01-26T09:26:33.831Z,102481.06
2023-01-26T09:28:35.343Z,102473.47
2023-01-26T09:30:36.891Z,102463.22
2023-01-26T09:32:38.461Z,102462.44
2023-01-26T09:34:39.948Z,102467.75
2023-01-26T09:36:41.612Z,102471.19
2023-01-26T09:38:43.103Z,102476.31
2023-01-26T09:41:06.470Z,102468.31
2023-01-26T09:43:42.916Z,102475.38
2023-01-26T09:46:06.193Z,102470.38
2023-01-26T09:48:56.127Z,102474.72
2023-01-26T09:51:07.442Z,102484.34
2023-01-26T09:53:16.825Z,102481.81
2023-01-26T09:55:21.866Z,102480.16
2023-01-26T09:57:32.585Z,102475.69
2023-01-26T09:59:43.146Z,102477.44
2023-01-26T10:02:01.845Z,102475.84
2023-01-26T10:04:06.091Z,102469.00
2023-01-26T10:06:29.078Z,102469.78
2023-01-26T10:08:30.803Z,102466.28
2023-01-26T10:10:36.448Z,102458.59
2023-01-26T10:12:38.369Z,102459.66
2023-01-26T10:14:45.382Z,102457.28
2023-01-26T10:16:49.884Z,102453.16
2023-01-26T10:18:59.344Z,102454.97
2023-01-26T10:21:04.099Z,102455.88
2023-01-26T10:23:22.156Z,102455.03
2023-01-26T10:25:30.041Z,102452.56
2023-01-26T10:27:31.505Z,102450.91
2023-01-26T10:29:32.950Z,102447.41
2023-01-26T10:31:34.560Z,102450.16
2023-01-26T10:33:38.039Z,102461.28
2023-01-26T10:35:39.517Z,102457.81
2023-01-26T10:37:40.996Z,102451.84
2023-01-26T10:40:12.162Z,102453.75
2023-01-26T10:42:19.083Z,102446.06
2023-01-26T10:44:31.917Z,102439.19
2023-01-26T10:46:38.454Z,102440.16
2023-01-26T10:48:51.133Z,102442.84
2023-01-26T10:50:53.683Z,102443.91
2023-01-26T10:53:03.390Z,102445.00
2023-01-26T10:55:20.827Z,102446.72
2023-01-26T10:57:24.976Z,102461.50
2023-01-26T10:59:32.526Z,102458.78
2023-01-26T11:01:52.468Z,102452.59
2023-01-26T11:04:07.148Z,102448.31
2023-01-26T11:06:16.987Z,102447.59
2023-01-26T11:08:34.599Z,102453.09
2023-01-26T11:10:38.772Z,102455.13
2023-01-26T11:12:40.236Z,102455.31
2023-01-26T11:14:41.694Z,102465.00
2023-01-26T11:17:08.058Z,102459.13
2023-01-26T11:19:15.561Z,102446.28
2023-01-26T11:21:22.719Z,102446.38
2023-01-26T11:23:37.663Z,102445.69
2023-01-26T11:26:09.337Z,102453.66
2023-01-26T11:28:41.244Z,102453.81
2023-01-26T11:31:14.058Z,102447.94
2023-01-26T11:33:48.997Z,102446.41
2023-01-26T11:36:16.326Z,102442.22
2023-01-26T11:38:39.217Z,102442.28
2023-01-26T11:40:49.333Z,102437.91
2023-01-26T11:43:21.837Z,102436.28
2023-01-26T11:45:33.386Z,102429.50
2023-01-26T11:48:01.689Z,102425.22
2023-01-26T11:50:14.976Z,102418.34
2023-01-26T11:53:11.632Z,102424.59
2023-01-26T11:55:45.582Z,102417.69
2023-01-26T11:58:20.572Z,102414.34
2023-01-26T12:00:31.076Z,102413.66
2023-01-26T12:02:36.536Z,102418.13
2023-01-26T12:04:45.433Z,102415.56
2023-01-26T12:06:49.120Z,102417.38
2023-01-26T12:08:54.794Z,102414.91
2023-01-26T12:11:22.321Z,102399.38
2023-01-26T12:13:38.088Z,102402.97
2023-01-26T12:15:47.326Z,102400.41
2023-01-26T12:18:09.981Z,102390.84
2023-01-26T12:20:45.485Z,102405.66
2023-01-26T12:22:54.805Z,102400.44
2023-01-26T12:25:28.680Z,102409.16
2023-01-26T12:27:38.555Z,102406.63
2023-01-26T12:29:55.071Z,102394.56
2023-01-26T12:32:08.832Z,102397.38
2023-01-26T12:34:13.411Z,102392.38
2023-01-26T12:36:30.939Z,102385.53
2023-01-26T12:39:09.568Z,102385.72
2023-01-26T12:41:22.810Z,102382.41
2023-01-26T12:43:47.515Z,102383.47
2023-01-26T12:45:54.364Z,102375.81
2023-01-26T12:48:36.368Z,102376.00
2023-01-26T12:50:44.752Z,102376.16
2023-01-26T12:52:53.436Z,102377.16
2023-01-26T12:55:14.871Z,102372.94
2023-01-26T12:57:21.822Z,102372.22
2023-01-26T12:59:46.435Z,102365.38
2023-01-26T13:01:50.267Z,102371.53
2023-01-26T13:04:09.083Z,102361.19
2023-01-26T13:06:10.439Z,102358.69
2023-01-26T13:08:30.300Z,102361.41
2023-01-26T13:10:46.054Z,102358.97
2023-01-26T13:13:01.737Z,102363.41
2023-01-26T13:15:06.547Z,102360.03
2023-01-26T13:17:16.883Z,102365.34
2023-01-26T13:19:52.624Z,102374.16
2023-01-26T13:21:54.115Z,102375.97
2023-01-26T13:23:55.707Z,102378.66
2023-01-26T13:26:22.166Z,102370.09
2023-01-26T13:28:28.098Z,102360.59
2023-01-26T13:30:29.563Z,102345.88
2023-01-26T13:32:31.097Z,102359.91
2023-01-26T13:34:39.354Z,102359.94
2023-01-26T13:36:45.393Z,102348.69
2023-01-26T13:38:59.826Z,102352.28
2023-01-26T13:41:07.194Z,102349.75
2023-01-26T13:43:31.526Z,102349.84
2023-01-26T13:45:39.551Z,102345.56
2023-01-26T13:47:45.330Z,102348.28
2023-01-26T13:49:46.799Z,102347.44
2023-01-26T13:51:48.264Z,102343.16
2023-01-26T13:54:07.707Z,102347.59
2023-01-26T13:56:26.108Z,102350.16
2023-01-26T13:58:28.052Z,102351.84
2023-01-26T14:00:29.529Z,102357.13
2023-01-26T14:02:34.643Z,102360.66
2023-01-26T14:04:37.755Z,102358.94
2023-01-26T14:06:39.499Z,102359.00
2023-01-26T14:08:47.684Z,102357.31
2023-01-26T14:10:49.526Z,102359.97
2023-01-26T14:12:56.497Z,102361.78
2023-01-26T14:15:01.744Z,102367.91
2023-01-26T14:17:08.864Z,102364.44
2023-01-26T14:19:17.563Z,102360.06
2023-01-26T14:21:21.995Z,102367.03
2023-01-26T14:23:26.922Z,102366.19
2023-01-26T14:25:28.423Z,102362.69
2023-01-26T14:27:41.668Z,102354.84
2023-01-26T14:29:43.131Z,102357.41
2023-01-26T14:31:48.161Z,102354.84
2023-01-26T14:33:53.279Z,102347.03
2023-01-26T14:36:01.464Z,102348.84
2023-01-26T14:38:21.756Z,102355.06
2023-01-26T14:40:24.890Z,102356.03
2023-01-26T14:42:26.488Z,102346.53
2023-01-26T14:44:27.987Z,102357.09
2023-01-26T14:46:49.725Z,102350.19
2023-01-26T14:48:59.217Z,102345.00
2023-01-26T14:51:03.109Z,102348.53
2023-01-26T14:53:06.678Z,102349.31
2023-01-26T14:55:14.981Z,102348.41
2023-01-26T14:57:20.358Z,102349.41
2023-01-26T14:59:25.418Z,102346.84
2023-01-26T15:01:27.983Z,102347.69
2023-01-26T15:03:33.841Z,102344.38
2023-01-26T15:05:38.734Z,102347.00
2023-01-26T15:07:56.529Z,102351.47
2023-01-26T15:09:58.144Z,102344.53
2023-01-26T15:12:18.441Z,102346.28
2023-01-26T15:14:48.283Z,102347.22
2023-01-26T15:16:53.807Z,102345.56
2023-01-26T15:19:06.040Z,102349.06
2023-01-26T15:21:22.108Z,102341.28
2023-01-26T15:23:33.151Z,102343.00
2023-01-26T15:25:34.759Z,102340.47
2023-01-26T15:27:36.971Z,102349.16
2023-01-26T15:29:38.542Z,102339.53
2023-01-26T15:31:42.819Z,102343.88
2023-01-26T15:33:45.615Z,102345.59
2023-01-26T15:35:57.782Z,102345.56
2023-01-26T15:38:13.526Z,102345.63
2023-01-26T15:40:15.573Z,102344.75
2023-01-26T15:42:23.542Z,102349.09
2023-01-26T15:44:25.028Z,102349.97
2023-01-26T15:46:26.683Z,102355.25
2023-01-26T15:48:31.702Z,102357.84
2023-01-26T15:50:33.201Z,102356.09
2023-01-26T15:52:34.654Z,102354.38
2023-01-26T15:54:36.104Z,102354.38
2023-01-26T15:56:37.891Z,102351.72
2023-01-26T15:58:40.304Z,102363.00
2023-01-26T16:00:41.901Z,102360.34
2023-01-26T16:02:43.604Z,102359.41
2023-01-26T16:04:45.595Z,102362.94
2023-01-26T16:06:47.064Z,102364.63
2023-01-26T16:08:48.890Z,102371.50
2023-01-26T16:10:50.451Z,102360.16
2023-01-26T16:12:52.526Z,102364.50
2023-01-26T16:14:53.985Z,102367.94
2023-01-26T16:16:55.427Z,102379.25
2023-01-26T16:18:57.320Z,102380.13
2023-01-26T16:20:58.855Z,102384.50
2023-01-26T16:23:00.774Z,102378.38
2023-01-26T16:25:02.226Z,102384.47
2023-01-26T16:27:05.088Z,102380.13
2023-01-26T16:29:06.551Z,102403.69
2023-01-26T16:31:26.986Z,102405.38
2023-01-26T16:33:28.468Z,102400.94
2023-01-26T16:35:30.076Z,102403.53
2023-01-26T16:37:31.511Z,102403.53
2023-01-26T16:39:32.982Z,102404.44
2023-01-26T16:41:34.484Z,102404.44
2023-01-26T16:43:40.549Z,102404.44
2023-01-26T16:45:41.999Z,102407.03
2023-01-26T16:47:43.829Z,102410.50
2023-01-26T16:49:45.895Z,102412.22
2023-01-26T16:51:47.405Z,102410.44
2023-01-26T16:53:49.009Z,102409.59
2023-01-26T16:55:50.510Z,102414.84
2023-01-26T16:57:51.959Z,102415.69
2023-01-26T16:59:53.423Z,102404.31
2023-01-26T17:01:55.093Z,102413.00
2023-01-26T17:03:56.808Z,102414.72
2023-01-26T17:05:58.585Z,102415.56
2023-01-26T17:08:00.048Z,102420.81
2023-01-26T17:10:01.514Z,102425.16
2023-01-26T17:12:03.169Z,102431.22
2023-01-26T17:14:04.644Z,102429.44
2023-01-26T17:16:16.583Z,102427.56
2023-01-26T17:18:18.096Z,102435.31
2023-01-26T17:20:20.250Z,102432.63
2023-01-26T17:22:21.778Z,102429.13
2023-01-26T17:24:23.657Z,102423.91
2023-01-26T17:26:25.227Z,102424.78
2023-01-26T17:28:27.286Z,102434.41
2023-01-26T17:30:28.991Z,102432.63
2023-01-26T17:32:31.018Z,102430.88
2023-01-26T17:34:32.477Z,102425.66
2023-01-26T17:36:33.948Z,102429.13
2023-01-26T17:38:35.978Z,102428.25
2023-01-26T17:40:37.439Z,102419.56
2023-01-26T17:42:39.039Z,102422.19
2023-01-26T17:44:40.614Z,102420.47
2023-01-26T17:46:42.067Z,102423.97
2023-01-26T17:48:45.459Z,102422.22
2023-01-26T17:50:48.792Z,102428.31
2023-01-26T17:52:50.224Z,102425.69
2023-01-26T17:54:52.026Z,102423.13
2023-01-26T17:56:54.744Z,102434.47
2023-01-26T17:58:56.799Z,102429.22
2023-01-26T18:00:58.408Z,102432.72
2023-01-26T18:02:59.905Z,102434.47
2023-01-26T18:05:01.412Z,102430.13
2023-01-26T18:07:03.144Z,102432.75
2023-01-26T18:09:05.958Z,102435.38
2023-01-26T18:11:12.804Z,102436.25
2023-01-26T18:13:14.990Z,102439.72
2023-01-26T18:15:16.904Z,102435.38
2023-01-26T18:17:18.516Z,102432.75
2023-01-26T18:19:20.066Z,102441.44
2023-01-26T18:21:24.360Z,102442.25
2023-01-26T18:23:25.825Z,102447.50
2023-01-26T18:25:27.288Z,102444.00
2023-01-26T18:27:28.736Z,102451.00
2023-01-26T18:29:30.475Z,102456.16
2023-01-26T18:31:40.590Z,102462.25
2023-01-26T18:33:42.410Z,102471.84
2023-01-26T18:35:44.105Z,102455.25
2023-01-26T18:37:45.566Z,102469.22
2023-01-26T18:39:47.235Z,102467.50
2023-01-26T18:41:48.735Z,102482.28
2023-01-26T18:43:52.042Z,102477.91
2023-01-26T18:45:53.512Z,102483.13
2023-01-26T18:47:55.023Z,102484.88
2023-01-26T18:49:56.922Z,102484.84
2023-01-26T18:51:58.459Z,102487.44
2023-01-26T18:54:00.555Z,102488.34
2023-01-26T18:56:04.951Z,102485.72
2023-01-26T18:58:06.530Z,102490.06
2023-01-26T19:00:09.108Z,102490.91
2023-01-26T19:02:13.490Z,102490.91
2023-01-26T19:04:17.922Z,102487.41
2023-01-26T19:06:20.097Z,102496.13
2023-01-26T19:08:24.632Z,102490.03
2023-01-26T19:10:26.107Z,102494.38
2023-01-26T19:12:27.565Z,102496.06
2023-01-26T19:14:29.364Z,102499.53
2023-01-26T19:16:31.771Z,102500.38
2023-01-26T19:18:33.293Z,102504.72
2023-01-26T19:20:34.971Z,102505.59
2023-01-26T19:22:36.676Z,102506.47
2023-01-26T19:24:38.253Z,102505.56
2023-01-26T19:26:39.750Z,102508.97
2023-01-26T19:28:41.989Z,102508.13
2023-01-26T19:30:44.436Z,102507.25
2023-01-26T19:33:08.493Z,102518.50
2023-01-26T19:35:12.112Z,102522.75
2023-01-26T19:37:15.589Z,102526.16
2023-01-26T19:39:17.121Z,102533.88
2023-01-26T19:41:19.931Z,102526.81
2023-01-26T19:43:22.067Z,102534.50
2023-01-26T19:45:23.612Z,102534.41
2023-01-26T19:47:25.049Z,102536.09
2023-01-26T19:49:26.535Z,102535.22
2023-01-26T19:51:29.298Z,102536.06
2023-01-26T19:53:32.991Z,102539.53
2023-01-26T19:55:34.765Z,102539.44
2023-01-26T19:57:36.322Z,102541.97
2023-01-26T19:59:37.755Z,102541.03
2023-01-26T20:01:39.324Z,102535.78
2023-01-26T20:03:41.060Z,102537.50
2023-01-26T20:05:42.486Z,102532.25
2023-01-26T20:07:44.388Z,102538.34
2023-01-26T20:09:46.133Z,102539.25
2023-01-26T20:11:49.038Z,102542.78
2023-01-26T20:13:57.759Z,102552.38
2023-01-26T20:15:59.411Z,102547.16
2023-01-26T20:18:02.202Z,102543.69
2023-01-26T20:20:04.146Z,102541.09
2023-01-26T20:22:05.697Z,102541.97
2023-01-26T20:24:12.285Z,102536.75
2023-01-26T20:26:14.527Z,102540.28
2023-01-26T20:28:16.099Z,102547.25
2023-01-26T20:30:18.408Z,102542.06
2023-01-26T20:32:19.876Z,102541.22
2023-01-26T20:34:21.986Z,102542.06
2023-01-26T20:36:27.263Z,102552.50
2023-01-26T20:38:28.863Z,102544.63
2023-01-26T20:40:30.590Z,102549.88
2023-01-26T20:42:32.186Z,102549.88
2023-01-26T20:44:33.704Z,102554.28
2023-01-26T20:46:38.169Z,102554.28
2023-01-26T20:48:40.190Z,102559.53
2023-01-26T20:50:41.777Z,102552.50
2023-01-26T20:52:43.812Z,102566.44
2023-01-26T20:54:45.794Z,102562.94
2023-01-26T20:56:48.983Z,102561.22
2023-01-26T20:58:53.025Z,102564.72
2023-01-26T21:00:54.580Z,102565.56
2023-01-26T21:02:56.069Z,102571.66
2023-01-26T21:04:57.504Z,102572.56
2023-01-26T21:06:59.105Z,102572.50
2023-01-26T21:09:00.782Z,102568.19
2023-01-26T21:11:03.294Z,102564.69
2023-01-26T21:13:04.781Z,102572.50
2023-01-26T21:15:06.937Z,102569.88
2023-01-26T21:17:08.553Z,102571.59
2023-01-26T21:19:10.041Z,102573.31
2023-01-26T21:21:17.474Z,102582.00
2023-01-26T21:23:18.968Z,102574.13
2023-01-26T21:25:20.609Z,102578.47
2023-01-26T21:27:22.064Z,102582.78
2023-01-26T21:29:23.644Z,102585.41
2023-01-26T21:31:26.832Z,102584.47
2023-01-26T21:33:32.801Z,102579.25
2023-01-26T21:35:34.261Z,102582.75
2023-01-26T21:37:35.727Z,102574.91
2023-01-26T21:39:37.201Z,102583.59
2023-01-26T21:41:56.740Z,102581.03
2023-01-26T21:44:16.780Z,102576.69
2023-01-26T21:46:18.209Z,102582.78
2023-01-26T21:48:28.319Z,102588.03
2023-01-26T21:50:49.740Z,102582.75
2023-01-26T21:53:00.283Z,102580.19
2023-01-26T21:55:01.809Z,102575.81
2023-01-26T21:57:25.190Z,102574.88
2023-01-26T21:59:26.796Z,102575.72
2023-01-26T22:01:33.556Z,102581.81
2023-01-26T22:03:35.811Z,102573.94
2023-01-26T22:05:37.836Z,102581.75
2023-01-26T22:07:39.479Z,102570.50
2023-01-26T22:09:41.244Z,102580.06
2023-01-26T22:11:43.166Z,102573.09
2023-01-26T22:13:44.717Z,102582.63
2023-01-26T22:15:46.184Z,102588.75
2023-01-26T22:17:47.626Z,102583.47
2023-01-26T22:19:49.089Z,102582.59
2023-01-26T22:21:50.564Z,102582.53
2023-01-26T22:23:53.609Z,102579.88
2023-01-26T22:25:55.062Z,102572.91
2023-01-26T22:27:56.525Z,102572.91
2023-01-26T22:29:58.035Z,102578.13
2023-01-26T22:31:59.842Z,102580.72
2023-01-26T22:34:01.437Z,102572.00
2023-01-26T22:36:05.737Z,102573.75
2023-01-26T22:38:07.251Z,102575.56
2023-01-26T22:40:09.489Z,102574.66
2023-01-26T22:42:10.968Z,102572.91
2023-01-26T22:44:12.474Z,102574.66
2023-01-26T22:46:14.697Z,102579.03
2023-01-26T22:48:17.040Z,102576.44
2023-01-26T22:50:18.533Z,102578.25
2023-01-26T22:52:19.974Z,102579.13
2023-01-26T22:54:21.482Z,102587.84
2023-01-26T22:56:23.372Z,102581.78
2023-01-26T22:58:24.840Z,102579.13
2023-01-26T23:00:26.397Z,102584.41
2023-01-26T23:02:27.858Z,102577.41
2023-01-26T23:04:29.409Z,102573.06
2023-01-26T23:06:31.098Z,102580.91
2023-01-26T23:08:33.423Z,102581.81
2023-01-26T23:10:34.952Z,102580.06
2023-01-26T23:12:36.452Z,102577.44
2023-01-26T23:14:37.914Z,102579.25
2023-01-26T23:16:39.412Z,102578.41
2023-01-26T23:18:41.716Z,102585.38
2023-01-26T23:20:43.169Z,102580.09
2023-01-26T23:22:45.198Z,102584.44
2023-01-26T23:25:06.656Z,102590.59
2023-01-26T23:27:08.097Z,102580.16
2023-01-26T23:29:09.648Z,102579.38
2023-01-26T23:31:12.894Z,102576.78
2023-01-26T23:33:15.535Z,102583.75
2023-01-26T23:35:17.201Z,102582.03
2023-01-26T23:37:18.656Z,102582.91
2023-01-26T23:39:20.083Z,102587.25
2023-01-26T23:41:21.559Z,102591.59
2023-01-26T23:43:23.664Z,102592.44
2023-01-26T23:45:25.178Z,102594.22
2023-01-26T23:47:26.707Z,102589.06
2023-01-26T23:49:28.236Z,102590.84
2023-01-26T23:51:29.702Z,102592.63